Rock Island, TN

2:41 PM CDT on August 30, 2015 (GMT -0500)
Faulkner Springs | | Change Station
CLOSE
Current Station
Personal Weather Station
Location: McMinnville, TN
Elevation: 928 ft
Nearby Weather Stations

Elev 928 ft 35.72 °N, 85.75 °W | Updated 5 seconds ago

Clear
Clear
80.8 °F
Feels Like 84 °F
N
1.7
Wind Variable Wind from West

Today
High -- | Low -- °F
--% Chance of Precip.
Yesterday
High -- | Low -- °F
Precip. -- in
6:12 AM 7:13 PM
Full, 98% visible
Pressure 30.13 in
Visibility 10.0 miles
Clouds Clear
Heat Index 84 °F
Dew Point 69 °F
Humidity 68%
Rainfall 0.00 in
Snow Depth Not available.
UV 8 out of 12
Pollen 6.10 out of 12
Air Quality Not available.
Flu Activity Not available.
METAR KSRB 301935Z AUTO 31003KT 10SM CLR 26/21 A3013 RMK
Pressure 30.13 in
Visibility 10.0 miles
Clouds Clear
Heat Index 84 °F
Dew Point 69 °F
Humidity 68%
Rainfall 0.00 in
Snow Depth Not available.
UV 8 out of 12
Pollen 6.10 out of 12
Air Quality Not available.
Flu Activity Not available.
METAR KSRB 301935Z AUTO 31003KT 10SM CLR 26/21 A3013 RMK

10-Day Weather Forecast

×

Almanac

Astronomy

Aug. 30, 2015 Rise Set
Actual Time
Civil Twilight
Nautical Twilight
Astronomical Twilight
Moon
Length of Visible Light
Length of Day
Tomorrow will be .
, % of the Moon is Illuminated

Today's Extremes

State Highs State Lows

Community

WunderPhotos

Upload Photos

1,851,041 photos uploaded!

WunderBlogs® & News

Nearby

Air Quality

  Air Quality AQ Index Pollutant
Not available.

Snow Depth

Station Depth Elevation

Earthquake Activity

City Distance Mag. Time & Date
Minimum magnitude displayed is 2.5.

Coastal Water Temperatures

Place Temperature

Stations

Nearby Weather Stations

Station Location Temp. Windchill Dew Point Humidity Wind Precip. Elev Updated Type